createdAt,value
2023-02-19T00:01:24.397Z,11.35
2023-02-19T00:03:54.391Z,11.29
2023-02-19T00:06:25.222Z,11.38
2023-02-19T00:08:53.534Z,11.37
2023-02-19T00:11:23.734Z,11.34
2023-02-19T00:13:53.326Z,11.36
2023-02-19T00:16:26.116Z,11.50
2023-02-19T00:18:55.049Z,11.34
2023-02-19T00:21:23.791Z,11.47
2023-02-19T00:23:56.151Z,11.36
2023-02-19T00:26:24.827Z,11.20
2023-02-19T00:28:57.342Z,11.26
2023-02-19T00:31:31.473Z,11.21
2023-02-19T00:34:03.442Z,11.32
2023-02-19T00:36:33.063Z,11.38
2023-02-19T00:39:01.132Z,11.30
2023-02-19T00:41:30.494Z,11.34
2023-02-19T00:44:00.669Z,11.26
2023-02-19T00:46:35.062Z,11.14
2023-02-19T00:49:04.777Z,11.22
2023-02-19T00:51:34.613Z,11.31
2023-02-19T00:54:02.535Z,11.24
2023-02-19T00:56:30.710Z,11.25
2023-02-19T00:58:58.907Z,11.22
2023-02-19T01:01:26.820Z,11.25
2023-02-19T01:03:56.054Z,11.30
2023-02-19T01:06:24.538Z,11.29
2023-02-19T01:08:52.732Z,11.41
2023-02-19T01:11:21.100Z,11.44
2023-02-19T01:13:49.257Z,11.32
2023-02-19T01:16:22.509Z,11.40
2023-02-19T01:18:50.678Z,11.30
2023-02-19T01:21:23.915Z,11.26
2023-02-19T01:23:53.068Z,11.27
2023-02-19T01:26:24.274Z,11.33
2023-02-19T01:28:52.864Z,11.14
2023-02-19T01:31:24.208Z,11.24
2023-02-19T01:33:54.143Z,11.36
2023-02-19T01:36:24.177Z,11.30
2023-02-19T01:38:52.253Z,11.16
2023-02-19T01:41:23.613Z,11.14
2023-02-19T01:43:58.294Z,11.23
2023-02-19T01:46:27.630Z,11.12
2023-02-19T01:48:58.114Z,11.21
2023-02-19T01:51:28.677Z,11.20
2023-02-19T01:53:59.908Z,11.21
2023-02-19T01:56:52.831Z,11.17
2023-02-19T01:59:21.182Z,11.19
2023-02-19T02:01:49.606Z,11.23
2023-02-19T02:04:20.046Z,11.21
2023-02-19T02:06:53.364Z,11.27
2023-02-19T02:09:44.819Z,11.26
2023-02-19T02:12:13.806Z,11.35
2023-02-19T02:14:46.637Z,11.32
2023-02-19T02:17:23.198Z,11.24
2023-02-19T02:20:27.058Z,11.23
2023-02-19T02:23:04.865Z,11.10
2023-02-19T02:25:59.406Z,11.11
2023-02-19T02:28:46.728Z,11.14
2023-02-19T02:31:21.397Z,11.22
2023-02-19T02:33:59.649Z,11.11
2023-02-19T02:36:32.355Z,11.08
2023-02-19T02:39:03.423Z,11.09
2023-02-19T02:41:34.731Z,11.10
2023-02-19T02:44:03.364Z,11.12
2023-02-19T02:46:37.545Z,11.11
2023-02-19T02:49:10.348Z,11.12
2023-02-19T02:51:42.542Z,11.12
2023-02-19T02:54:37.797Z,11.09
2023-02-19T02:57:14.645Z,11.18
2023-02-19T02:59:49.386Z,11.01
2023-02-19T03:02:24.973Z,10.91
2023-02-19T03:05:16.869Z,10.86
2023-02-19T03:07:50.820Z,10.81
2023-02-19T03:10:25.106Z,10.91
2023-02-19T03:13:13.729Z,10.93
2023-02-19T03:16:17.141Z,10.94
2023-02-19T03:19:08.425Z,11.01
2023-02-19T03:21:39.607Z,10.96
2023-02-19T03:24:49.256Z,11.09
2023-02-19T03:27:22.401Z,11.05
2023-02-19T03:29:58.865Z,11.00
2023-02-19T03:32:31.574Z,11.25
2023-02-19T03:35:06.013Z,11.08
2023-02-19T03:37:39.258Z,11.13
2023-02-19T03:40:09.053Z,11.09
2023-02-19T03:42:44.160Z,11.13
2023-02-19T03:45:44.184Z,11.08
2023-02-19T03:48:26.707Z,11.11
2023-02-19T03:51:06.101Z,11.16
2023-02-19T03:53:39.055Z,11.18
2023-02-19T03:56:11.648Z,11.11
2023-02-19T03:58:48.715Z,11.11
2023-02-19T04:01:22.769Z,11.18
2023-02-19T04:03:58.178Z,11.10
2023-02-19T04:06:31.660Z,11.05
2023-02-19T04:09:03.788Z,11.08
2023-02-19T04:11:33.825Z,11.04
2023-02-19T04:14:10.647Z,11.18
2023-02-19T04:16:46.246Z,11.02
2023-02-19T04:19:20.569Z,10.93
2023-02-19T04:21:52.040Z,11.00
2023-02-19T04:24:26.454Z,10.97
2023-02-19T04:26:58.152Z,11.04
2023-02-19T04:29:26.760Z,11.00
2023-02-19T04:31:55.387Z,11.00
2023-02-19T04:34:23.633Z,10.95
2023-02-19T04:36:53.283Z,10.90
2023-02-19T04:39:23.847Z,11.03
2023-02-19T04:41:51.868Z,10.76
2023-02-19T04:44:20.357Z,10.79
2023-02-19T04:46:48.813Z,10.78
2023-02-19T04:49:17.043Z,10.68
2023-02-19T04:51:45.518Z,10.55
2023-02-19T04:54:14.774Z,10.56
2023-02-19T04:56:43.320Z,10.59
2023-02-19T04:59:11.997Z,10.68
2023-02-19T05:01:40.182Z,10.75
2023-02-19T05:04:08.501Z,10.81
2023-02-19T05:06:37.567Z,10.85
2023-02-19T05:09:05.475Z,10.88
2023-02-19T05:11:35.682Z,10.96
2023-02-19T05:14:03.896Z,10.97
2023-02-19T05:16:33.168Z,10.99
2023-02-19T05:19:02.236Z,10.87
2023-02-19T05:21:32.789Z,11.04
2023-02-19T05:24:00.987Z,11.05
2023-02-19T05:26:31.148Z,11.03
2023-02-19T05:29:01.436Z,10.95
2023-02-19T05:31:30.433Z,10.92
2023-02-19T05:33:58.695Z,10.93
2023-02-19T05:36:29.043Z,10.98
2023-02-19T05:38:58.530Z,10.91
2023-02-19T05:41:28.637Z,10.93
2023-02-19T05:43:57.866Z,10.92
2023-02-19T05:46:29.826Z,10.91
2023-02-19T05:48:58.625Z,10.87
2023-02-19T05:51:28.313Z,11.02
2023-02-19T05:53:58.971Z,10.99
2023-02-19T05:56:35.013Z,10.97
2023-02-19T05:59:06.762Z,11.02
2023-02-19T06:01:37.107Z,10.99
2023-02-19T06:04:05.655Z,10.97
2023-02-19T06:06:33.852Z,11.11
2023-02-19T06:09:02.130Z,11.12
2023-02-19T06:11:31.970Z,11.13
2023-02-19T06:14:00.193Z,11.16
2023-02-19T06:16:28.626Z,11.16
2023-02-19T06:18:58.242Z,11.07
2023-02-19T06:21:28.889Z,11.15
2023-02-19T06:23:56.859Z,11.04
2023-02-19T06:26:26.462Z,10.93
2023-02-19T06:28:55.020Z,11.05
2023-02-19T06:31:24.254Z,11.09
2023-02-19T06:33:52.557Z,10.90
2023-02-19T06:36:22.559Z,10.88
2023-02-19T06:38:50.731Z,10.85
2023-02-19T06:41:19.354Z,10.95
2023-02-19T06:43:47.767Z,10.92
2023-02-19T06:46:16.347Z,10.95
2023-02-19T06:48:46.072Z,10.91
2023-02-19T06:51:15.034Z,10.89
2023-02-19T06:53:44.505Z,10.94
2023-02-19T06:56:25.221Z,11.01
2023-02-19T06:58:54.394Z,11.04
2023-02-19T07:01:25.709Z,11.07
2023-02-19T07:03:54.433Z,11.05
2023-02-19T07:06:24.591Z,11.06
2023-02-19T07:08:56.629Z,11.15
2023-02-19T07:11:25.334Z,11.16
2023-02-19T07:13:57.200Z,11.20
2023-02-19T07:16:26.230Z,11.25
2023-02-19T07:18:57.113Z,11.17
2023-02-19T07:21:25.979Z,11.24
2023-02-19T07:23:55.334Z,11.20
2023-02-19T07:26:24.769Z,11.23
2023-02-19T07:28:52.982Z,11.18
2023-02-19T07:31:23.984Z,11.12
2023-02-19T07:33:52.831Z,10.90
2023-02-19T07:36:22.502Z,10.91
2023-02-19T07:38:56.418Z,10.95
2023-02-19T07:41:25.659Z,10.84
2023-02-19T07:43:56.916Z,11.01
2023-02-19T07:46:25.866Z,10.92
2023-02-19T07:48:53.835Z,10.90
2023-02-19T07:51:22.638Z,10.79
2023-02-19T07:53:51.636Z,10.86
2023-02-19T07:56:21.572Z,10.88
2023-02-19T07:58:50.054Z,10.78
2023-02-19T08:01:44.667Z,10.85
2023-02-19T08:04:15.402Z,10.97
2023-02-19T08:06:44.272Z,10.93
2023-02-19T08:09:13.026Z,11.03
2023-02-19T08:11:59.643Z,10.97
2023-02-19T08:14:47.087Z,11.09
2023-02-19T08:17:15.761Z,11.14
2023-02-19T08:19:44.602Z,11.12
2023-02-19T08:22:12.695Z,11.11
2023-02-19T08:24:45.237Z,11.11
2023-02-19T08:27:17.237Z,11.14
2023-02-19T08:29:45.348Z,11.25
2023-02-19T08:32:13.501Z,11.30
2023-02-19T08:34:42.567Z,11.33
2023-02-19T08:37:11.128Z,11.28
2023-02-19T08:39:39.576Z,11.35
2023-02-19T08:42:08.401Z,11.37
2023-02-19T08:44:37.650Z,11.37
2023-02-19T08:47:06.147Z,11.35
2023-02-19T08:49:34.993Z,11.35
2023-02-19T08:52:04.541Z,11.35
2023-02-19T08:54:36.251Z,11.28
2023-02-19T08:57:05.660Z,11.27
2023-02-19T08:59:34.060Z,11.27
2023-02-19T09:02:10.246Z,11.32
2023-02-19T09:04:38.794Z,11.40
2023-02-19T09:07:09.933Z,11.37
2023-02-19T09:09:38.640Z,11.31
2023-02-19T09:12:07.694Z,11.27
2023-02-19T09:14:38.550Z,11.23
2023-02-19T09:17:12.654Z,11.17
2023-02-19T09:19:41.182Z,11.06
2023-02-19T09:22:09.360Z,11.08
2023-02-19T09:24:37.632Z,11.24
2023-02-19T09:27:05.820Z,11.28
2023-02-19T09:29:34.514Z,11.37
2023-02-19T09:32:03.555Z,11.46
2023-02-19T09:34:33.402Z,11.59
2023-02-19T09:37:01.368Z,11.66
2023-02-19T09:39:29.737Z,11.62
2023-02-19T09:42:00.733Z,11.61
2023-02-19T09:44:31.963Z,11.53
2023-02-19T09:47:02.364Z,11.57
2023-02-19T09:49:35.513Z,11.70
2023-02-19T09:52:10.184Z,11.63
2023-02-19T09:54:45.273Z,11.62
2023-02-19T09:57:17.556Z,11.75
2023-02-19T09:59:49.167Z,11.67
2023-02-19T10:02:23.777Z,11.68
2023-02-19T10:04:54.849Z,11.68
2023-02-19T10:07:27.472Z,11.78
2023-02-19T10:09:59.884Z,11.67
2023-02-19T10:12:30.828Z,11.66
2023-02-19T10:15:02.447Z,11.78
2023-02-19T10:17:34.901Z,11.77
2023-02-19T10:20:05.388Z,11.75
2023-02-19T10:22:37.897Z,11.79
2023-02-19T10:25:06.818Z,11.77
2023-02-19T10:27:34.952Z,11.89
2023-02-19T10:30:03.480Z,11.86
2023-02-19T10:32:31.814Z,11.94
2023-02-19T10:35:12.108Z,12.04
2023-02-19T10:37:45.546Z,12.11
2023-02-19T10:40:19.533Z,12.15
2023-02-19T10:42:49.994Z,12.15
2023-02-19T10:45:21.746Z,12.22
2023-02-19T10:47:52.509Z,12.35
2023-02-19T10:50:28.002Z,12.28
2023-02-19T10:53:00.748Z,12.23
2023-02-19T10:55:35.534Z,12.23
2023-02-19T10:58:24.379Z,12.41
2023-02-19T11:01:13.079Z,12.45
2023-02-19T11:03:41.719Z,12.39
2023-02-19T11:06:13.101Z,12.41
2023-02-19T11:08:49.966Z,12.50
2023-02-19T11:11:41.208Z,12.70
2023-02-19T11:14:16.819Z,12.68
2023-02-19T11:16:47.625Z,12.67
2023-02-19T11:19:33.068Z,12.53
2023-02-19T11:22:03.509Z,12.51
2023-02-19T11:24:37.259Z,12.68
2023-02-19T11:27:08.113Z,12.57
2023-02-19T11:29:36.457Z,12.58
2023-02-19T11:32:26.414Z,12.56
2023-02-19T11:35:19.434Z,12.68
2023-02-19T11:38:00.233Z,12.69
2023-02-19T11:40:40.992Z,12.62
2023-02-19T11:43:28.682Z,12.54
2023-02-19T11:46:04.429Z,12.48
2023-02-19T11:48:59.353Z,12.44
2023-02-19T11:51:51.588Z,12.28
2023-02-19T11:54:40.983Z,12.35
2023-02-19T11:57:18.318Z,12.41
2023-02-19T11:59:50.257Z,12.64
2023-02-19T12:02:31.406Z,12.68
2023-02-19T12:05:30.076Z,12.75
2023-02-19T12:08:29.683Z,12.64
2023-02-19T12:11:16.889Z,12.47
2023-02-19T12:14:05.603Z,12.52
2023-02-19T12:16:42.896Z,12.65
2023-02-19T12:19:26.981Z,12.53
2023-02-19T12:22:12.205Z,12.58
2023-02-19T12:25:32.823Z,12.68
2023-02-19T12:28:25.013Z,13.01
2023-02-19T12:31:28.232Z,13.25
2023-02-19T12:34:25.501Z,13.40
2023-02-19T12:37:04.405Z,13.53
2023-02-19T12:39:44.038Z,13.55
2023-02-19T12:42:18.192Z,13.54
2023-02-19T12:44:55.254Z,13.62
2023-02-19T12:47:29.781Z,13.70
2023-02-19T12:50:07.083Z,13.62
2023-02-19T12:52:41.299Z,13.53
2023-02-19T12:55:22.216Z,13.39
2023-02-19T12:57:58.108Z,13.42
2023-02-19T13:00:35.647Z,13.42
2023-02-19T13:03:12.258Z,13.37
2023-02-19T13:05:48.414Z,13.26
2023-02-19T13:08:23.714Z,13.13
2023-02-19T13:10:56.575Z,13.04
2023-02-19T13:13:35.583Z,13.01
2023-02-19T13:16:10.826Z,13.04
2023-02-19T13:18:43.901Z,13.02
2023-02-19T13:21:35.309Z,13.03
2023-02-19T13:24:07.538Z,13.02
2023-02-19T13:26:50.402Z,13.00
2023-02-19T13:29:34.214Z,13.15
2023-02-19T13:32:32.590Z,13.20
2023-02-19T13:35:26.440Z,13.21
2023-02-19T13:37:56.791Z,13.29
2023-02-19T13:40:33.380Z,13.37
2023-02-19T13:43:04.163Z,13.42
2023-02-19T13:45:36.625Z,13.37
2023-02-19T13:48:17.015Z,13.34
2023-02-19T13:50:46.644Z,13.43
2023-02-19T13:53:54.364Z,13.38
2023-02-19T13:56:40.308Z,13.44
2023-02-19T13:59:25.328Z,13.47
2023-02-19T14:02:35.302Z,13.55
2023-02-19T14:05:10.807Z,13.57
2023-02-19T14:07:56.883Z,13.67
2023-02-19T14:11:02.121Z,13.63
2023-02-19T14:13:59.449Z,13.67
2023-02-19T14:16:55.502Z,13.78
2023-02-19T14:19:47.395Z,13.64
2023-02-19T14:22:58.035Z,13.49
2023-02-19T14:25:54.544Z,13.30
2023-02-19T14:28:36.211Z,13.19
2023-02-19T14:31:12.078Z,13.16
2023-02-19T14:33:46.004Z,13.04
2023-02-19T14:36:21.236Z,12.92
2023-02-19T14:38:53.742Z,12.94
2023-02-19T14:41:24.940Z,12.94
2023-02-19T14:43:55.500Z,13.03
2023-02-19T14:46:31.123Z,13.07
2023-02-19T14:49:04.533Z,13.08
2023-02-19T14:51:37.674Z,13.02
2023-02-19T14:54:15.834Z,13.04
2023-02-19T14:56:52.530Z,13.07
2023-02-19T14:59:25.214Z,13.05
2023-02-19T15:01:59.637Z,13.09
2023-02-19T15:04:31.235Z,13.11
2023-02-19T15:07:04.596Z,13.29
2023-02-19T15:09:37.425Z,13.46
2023-02-19T15:12:08.001Z,13.58
2023-02-19T15:14:37.742Z,13.58
2023-02-19T15:17:07.569Z,13.51
2023-02-19T15:19:39.977Z,13.38
2023-02-19T15:22:09.227Z,13.29
2023-02-19T15:24:37.290Z,13.32
2023-02-19T15:27:06.252Z,13.34
2023-02-19T15:29:47.022Z,13.40
2023-02-19T15:32:19.199Z,13.46
2023-02-19T15:34:55.658Z,13.44
2023-02-19T15:37:26.001Z,13.39
2023-02-19T15:39:56.662Z,13.27
2023-02-19T15:42:28.036Z,13.11
2023-02-19T15:45:03.218Z,13.03
2023-02-19T15:47:38.968Z,12.93
2023-02-19T15:50:11.432Z,12.82
2023-02-19T15:52:47.501Z,12.62
2023-02-19T15:55:34.429Z,12.51
2023-02-19T15:58:09.052Z,12.55
2023-02-19T16:00:43.027Z,12.58
2023-02-19T16:03:19.065Z,12.48
2023-02-19T16:06:00.099Z,12.41
2023-02-19T16:08:33.610Z,12.44
2023-02-19T16:11:28.006Z,12.33
2023-02-19T16:14:18.546Z,12.27
2023-02-19T16:16:51.599Z,12.34
2023-02-19T16:19:27.572Z,12.40
2023-02-19T16:21:57.153Z,12.27
2023-02-19T16:24:29.680Z,12.39
2023-02-19T16:26:59.060Z,12.35
2023-02-19T16:29:29.719Z,12.23
2023-02-19T16:32:02.068Z,12.14
2023-02-19T16:34:34.883Z,12.15
2023-02-19T16:37:25.207Z,12.12
2023-02-19T16:40:16.735Z,12.12
2023-02-19T16:43:29.200Z,11.98
2023-02-19T16:45:59.580Z,12.03
2023-02-19T16:48:29.415Z,12.00
2023-02-19T16:50:57.927Z,11.92
2023-02-19T16:53:26.742Z,12.02
2023-02-19T16:55:54.865Z,11.99
2023-02-19T16:58:23.199Z,11.93
2023-02-19T17:00:51.624Z,11.84
2023-02-19T17:03:24.341Z,11.82
2023-02-19T17:05:54.554Z,11.84
2023-02-19T17:08:37.061Z,11.78
2023-02-19T17:11:07.302Z,11.74
2023-02-19T17:13:35.370Z,11.77
2023-02-19T17:16:03.857Z,11.75
2023-02-19T17:18:33.526Z,11.66
2023-02-19T17:21:13.639Z,11.77
2023-02-19T17:23:41.745Z,11.73
2023-02-19T17:26:14.776Z,11.61
2023-02-19T17:28:43.123Z,11.60
2023-02-19T17:31:11.775Z,11.57
2023-02-19T17:33:40.346Z,11.59
2023-02-19T17:36:18.065Z,11.62
2023-02-19T17:38:46.482Z,11.57
2023-02-19T17:41:15.118Z,11.55
2023-02-19T17:43:45.777Z,11.44
2023-02-19T17:46:16.548Z,11.41
2023-02-19T17:48:47.116Z,11.47
2023-02-19T17:51:16.901Z,11.49
2023-02-19T17:53:46.717Z,11.40
2023-02-19T17:56:19.104Z,11.36
2023-02-19T17:58:48.686Z,11.35
2023-02-19T18:01:17.244Z,11.35
2023-02-19T18:03:45.910Z,11.39
2023-02-19T18:06:14.216Z,11.37
2023-02-19T18:08:51.131Z,11.35
2023-02-19T18:11:22.003Z,11.37
2023-02-19T18:13:50.710Z,11.33
2023-02-19T18:16:19.576Z,11.33
2023-02-19T18:18:48.134Z,11.32
2023-02-19T18:21:16.690Z,11.29
2023-02-19T18:23:46.308Z,11.35
2023-02-19T18:26:21.737Z,11.35
2023-02-19T18:28:49.651Z,11.35
2023-02-19T18:31:17.986Z,11.37
2023-02-19T18:33:45.914Z,11.53
2023-02-19T18:36:14.069Z,11.40
2023-02-19T18:38:44.791Z,11.49
2023-02-19T18:41:21.050Z,11.34
2023-02-19T18:43:49.792Z,11.30
2023-02-19T18:46:21.699Z,11.27
2023-02-19T18:48:50.256Z,11.25
2023-02-19T18:51:18.190Z,11.24
2023-02-19T18:53:49.504Z,11.27
2023-02-19T18:56:21.414Z,11.22
2023-02-19T18:58:51.891Z,11.25
2023-02-19T19:01:20.594Z,11.26
2023-02-19T19:03:48.870Z,11.17
2023-02-19T19:06:16.778Z,11.13
2023-02-19T19:08:45.348Z,11.14
2023-02-19T19:11:14.061Z,11.15
2023-02-19T19:13:43.743Z,11.23
2023-02-19T19:16:14.134Z,11.23
2023-02-19T19:18:42.236Z,11.20
2023-02-19T19:21:11.177Z,11.16
2023-02-19T19:23:39.615Z,11.14
2023-02-19T19:26:08.230Z,11.22
2023-02-19T19:28:36.650Z,11.16
2023-02-19T19:31:07.380Z,11.17
2023-02-19T19:33:35.330Z,11.23
2023-02-19T19:36:03.636Z,11.11
2023-02-19T19:38:31.810Z,11.09
2023-02-19T19:40:59.964Z,11.12
2023-02-19T19:43:28.584Z,11.14
2023-02-19T19:46:01.952Z,11.19
2023-02-19T19:48:33.146Z,11.10
2023-02-19T19:51:02.991Z,11.07
2023-02-19T19:53:32.121Z,11.06
2023-02-19T19:56:02.866Z,11.06
2023-02-19T19:58:31.000Z,11.06
2023-02-19T20:01:01.658Z,11.01
2023-02-19T20:03:33.683Z,10.95
2023-02-19T20:06:04.183Z,11.05
2023-02-19T20:08:34.391Z,11.03
2023-02-19T20:11:07.281Z,10.94
2023-02-19T20:13:35.614Z,10.87
2023-02-19T20:16:03.883Z,10.93
2023-02-19T20:18:35.902Z,10.95
2023-02-19T20:21:04.724Z,11.03
2023-02-19T20:23:33.501Z,11.03
2023-02-19T20:26:01.792Z,10.98
2023-02-19T20:28:30.073Z,10.97
2023-02-19T20:30:58.365Z,11.08
2023-02-19T20:33:29.116Z,11.15
2023-02-19T20:35:58.668Z,11.05
2023-02-19T20:38:27.074Z,11.16
2023-02-19T20:40:58.241Z,11.16
2023-02-19T20:43:28.372Z,11.20
2023-02-19T20:45:56.546Z,11.08
2023-02-19T20:48:26.171Z,11.11
2023-02-19T20:50:59.190Z,11.03
2023-02-19T20:53:28.859Z,11.03
2023-02-19T20:55:57.397Z,11.02
2023-02-19T20:58:26.509Z,11.02
2023-02-19T21:00:55.672Z,10.95
2023-02-19T21:03:24.846Z,10.86
2023-02-19T21:05:53.132Z,10.89
2023-02-19T21:08:21.105Z,10.92
2023-02-19T21:10:50.970Z,10.86
2023-02-19T21:13:19.063Z,11.02
2023-02-19T21:15:47.267Z,10.90
2023-02-19T21:18:16.093Z,10.86
2023-02-19T21:20:43.960Z,10.84
2023-02-19T21:23:12.377Z,10.81
2023-02-19T21:25:40.528Z,10.86
2023-02-19T21:28:10.916Z,10.89
2023-02-19T21:30:39.296Z,10.91
2023-02-19T21:33:07.431Z,10.98
2023-02-19T21:35:36.008Z,10.89
2023-02-19T21:38:04.180Z,10.84
2023-02-19T21:40:32.905Z,10.92
2023-02-19T21:43:02.047Z,10.91
2023-02-19T21:45:31.565Z,10.82
2023-02-19T21:47:59.751Z,10.85
2023-02-19T21:50:28.278Z,10.82
2023-02-19T21:52:56.267Z,10.79
2023-02-19T21:55:24.442Z,10.81
2023-02-19T21:57:53.998Z,10.80
2023-02-19T22:00:23.098Z,10.80
2023-02-19T22:02:52.530Z,10.78
2023-02-19T22:05:23.470Z,10.86
2023-02-19T22:07:52.977Z,10.78
2023-02-19T22:10:21.575Z,10.75
2023-02-19T22:12:51.197Z,10.78
2023-02-19T22:15:19.697Z,10.74
2023-02-19T22:17:48.071Z,10.75
2023-02-19T22:20:19.638Z,10.64
2023-02-19T22:22:47.803Z,10.62
2023-02-19T22:25:16.172Z,10.66
2023-02-19T22:27:48.927Z,10.70
2023-02-19T22:30:17.458Z,10.72
2023-02-19T22:32:45.602Z,10.72
2023-02-19T22:35:15.668Z,10.64
2023-02-19T22:37:46.804Z,10.75
2023-02-19T22:40:17.167Z,10.59
2023-02-19T22:42:45.444Z,10.66
2023-02-19T22:45:14.740Z,10.64
2023-02-19T22:47:43.933Z,10.65
2023-02-19T22:50:19.445Z,10.63
2023-02-19T22:52:49.869Z,10.51
2023-02-19T22:55:18.587Z,10.56
2023-02-19T22:57:49.204Z,10.59
2023-02-19T23:00:22.120Z,10.54
2023-02-19T23:02:50.644Z,10.53
2023-02-19T23:05:18.710Z,10.58
2023-02-19T23:07:48.672Z,10.49
2023-02-19T23:10:17.186Z,10.62
2023-02-19T23:12:45.152Z,10.46
2023-02-19T23:15:14.121Z,10.46
2023-02-19T23:17:42.069Z,10.41
2023-02-19T23:20:11.068Z,10.42
2023-02-19T23:22:40.315Z,10.31
2023-02-19T23:25:12.161Z,10.32
2023-02-19T23:27:40.147Z,10.29
2023-02-19T23:30:11.310Z,10.34
2023-02-19T23:32:39.674Z,10.34
2023-02-19T23:35:08.320Z,10.27
2023-02-19T23:37:36.768Z,10.35
2023-02-19T23:40:05.157Z,10.29
2023-02-19T23:42:37.810Z,10.18
2023-02-19T23:45:06.564Z,10.12
2023-02-19T23:47:34.564Z,10.06
2023-02-19T23:50:04.569Z,9.96
2023-02-19T23:52:33.619Z,9.86
2023-02-19T23:55:03.022Z,9.86
2023-02-19T23:57:31.377Z,9.77
